TimeMST,TemperatureF,Dew PointF,Humidity,Sea Level PressureIn,VisibilityMPH,Wind Direction,Wind SpeedMPH,Gust SpeedMPH,PrecipitationIn,Events,Conditions,WindDirDegrees,DateUTC
12:15 AM,13.8,8.8,80,30.13,10.0,Calm,Calm,-,N/A,,Overcast,0,2013-02-05 07:15:00
12:35 AM,12.6,9.9,89,30.14,10.0,Calm,Calm,-,N/A,,Overcast,0,2013-02-05 07:35:00
12:55 AM,11.7,8.1,85,30.14,10.0,Calm,Calm,-,N/A,,Overcast,0,2013-02-05 07:55:00
1:15 AM,11.7,7.3,83,30.14,10.0,Calm,Calm,-,N/A,,Scattered Clouds,0,2013-02-05 08:15:00
1:35 AM,13.1,10.9,91,30.14,10.0,Calm,Calm,-,N/A,,Clear,0,2013-02-05 08:35:00
1:55 AM,10.4,8.1,90,30.13,10.0,Calm,Calm,-,N/A,,Clear,0,2013-02-05 08:55:00
2:15 AM,7.7,5.9,92,30.14,10.0,Calm,Calm,-,N/A,,Clear,0,2013-02-05 09:15:00
2:35 AM,8.4,6.8,93,30.14,10.0,Calm,Calm,-,N/A,,Clear,0,2013-02-05 09:35:00
2:55 AM,9.0,7.0,92,30.14,10.0,Calm,Calm,-,N/A,,Clear,0,2013-02-05 09:55:00
3:15 AM,9.0,7.3,93,30.13,10.0,Calm,Calm,-,N/A,,Clear,0,2013-02-05 10:15:00
3:35 AM,10.2,9.0,95,30.13,10.0,Calm,Calm,-,N/A,,Clear,0,2013-02-05 10:35:00
3:55 AM,7.3,5.5,92,30.14,10.0,Calm,Calm,-,N/A,,Clear,0,2013-02-05 10:55:00
4:15 AM,10.0,8.8,95,30.15,10.0,Calm,Calm,-,N/A,,Clear,0,2013-02-05 11:15:00
4:35 AM,9.3,7.5,92,30.15,10.0,Calm,Calm,-,N/A,,Clear,0,2013-02-05 11:35:00
4:55 AM,9.5,7.7,92,30.15,10.0,Calm,Calm,-,N/A,,Clear,0,2013-02-05 11:55:00
5:15 AM,7.2,5.0,91,30.15,10.0,Calm,Calm,-,N/A,,Clear,0,2013-02-05 12:15:00
5:35 AM,9.7,8.2,94,30.13,10.0,Calm,Calm,-,N/A,,Clear,0,2013-02-05 12:35:00
5:55 AM,5.9,3.4,89,30.14,10.0,Calm,Calm,-,N/A,,Clear,0,2013-02-05 12:55:00
6:15 AM,6.6,5.0,93,30.15,7.0,Calm,Calm,-,N/A,,Clear,0,2013-02-05 13:15:00
6:35 AM,7.7,5.9,92,30.15,10.0,Calm,Calm,-,N/A,,Clear,0,2013-02-05 13:35:00
6:55 AM,8.4,6.4,92,30.16,10.0,Calm,Calm,-,N/A,,Clear,0,2013-02-05 13:55:00
7:15 AM,7.5,5.4,91,30.16,10.0,Calm,Calm,-,N/A,,Clear,0,2013-02-05 14:15:00
7:35 AM,7.2,4.6,89,30.16,10.0,Calm,Calm,-,N/A,,Clear,0,2013-02-05 14:35:00
7:55 AM,10.4,8.4,92,30.15,10.0,Calm,Calm,-,N/A,,Clear,0,2013-02-05 14:55:00
8:15 AM,7.3,4.5,88,30.14,10.0,Calm,Calm,-,N/A,,Clear,0,2013-02-05 15:15:00
8:35 AM,10.0,7.3,89,30.17,10.0,Calm,Calm,-,N/A,,Clear,0,2013-02-05 15:35:00
8:55 AM,11.7,9.3,90,30.16,10.0,Calm,Calm,-,N/A,,Scattered Clouds,0,2013-02-05 15:55:00
9:15 AM,14.4,12.6,93,30.15,10.0,ESE,4.6,-,N/A,,Scattered Clouds,120,2013-02-05 16:15:00
9:35 AM,19.6,15.3,83,30.16,10.0,Calm,Calm,-,N/A,,Clear,0,2013-02-05 16:35:00
9:55 AM,17.6,9.5,71,30.15,10.0,Calm,Calm,-,N/A,,Clear,0,2013-02-05 16:55:00
10:15 AM,17.4,9.0,69,30.15,10.0,Calm,Calm,-,N/A,,Scattered Clouds,0,2013-02-05 17:15:00
10:35 AM,21.6,11.1,64,30.15,10.0,Calm,Calm,-,N/A,,Scattered Clouds,0,2013-02-05 17:35:00
10:55 AM,24.3,11.5,58,30.15,10.0,Calm,Calm,-,N/A,,Clear,0,2013-02-05 17:55:00
11:15 AM,25.2,11.8,57,30.15,10.0,Calm,Calm,-,N/A,,Mostly Cloudy,0,2013-02-05 18:15:00
11:35 AM,26.1,12.7,57,30.13,10.0,Calm,Calm,-,N/A,,Overcast,0,2013-02-05 18:35:00
11:55 AM,30.0,14.2,52,30.12,10.0,Calm,Calm,-,N/A,,Overcast,0,2013-02-05 18:55:00
12:15 PM,31.8,15.6,51,30.10,10.0,Calm,Calm,-,N/A,,Overcast,0,2013-02-05 19:15:00
12:35 PM,30.7,16.0,54,30.09,10.0,Calm,Calm,-,N/A,,Overcast,0,2013-02-05 19:35:00
12:55 PM,30.7,16.3,55,30.08,10.0,Calm,Calm,-,N/A,,Overcast,0,2013-02-05 19:55:00
1:15 PM,32.0,17.4,55,30.07,10.0,Calm,Calm,-,N/A,,Overcast,0,2013-02-05 20:15:00
1:35 PM,30.7,17.6,58,30.06,10.0,Calm,Calm,-,N/A,,Overcast,0,2013-02-05 20:35:00
1:55 PM,33.1,18.1,54,30.05,10.0,Calm,Calm,-,N/A,,Overcast,0,2013-02-05 20:55:00
2:15 PM,31.6,18.0,57,30.03,10.0,Calm,Calm,-,N/A,,Overcast,0,2013-02-05 21:15:00
2:35 PM,33.1,19.2,57,30.03,10.0,Calm,Calm,-,N/A,,Overcast,0,2013-02-05 21:35:00
2:55 PM,35.2,19.8,53,30.02,10.0,Calm,Calm,-,N/A,,Overcast,0,2013-02-05 21:55:00
3:15 PM,32.0,18.9,58,30.02,10.0,Calm,Calm,-,N/A,,Overcast,0,2013-02-05 22:15:00
3:35 PM,31.1,18.1,59,30.02,10.0,Calm,Calm,-,N/A,,Overcast,0,2013-02-05 22:35:00
3:55 PM,35.8,19.0,51,30.02,10.0,Calm,Calm,-,N/A,,Overcast,0,2013-02-05 22:55:00
4:15 PM,34.5,19.2,54,30.00,10.0,SE,3.5,-,N/A,,Mostly Cloudy,130,2013-02-05 23:15:00
4:35 PM,32.0,18.5,58,29.99,10.0,Calm,Calm,-,N/A,,Clear,0,2013-02-05 23:35:00
4:55 PM,29.8,17.8,61,29.99,10.0,Calm,Calm,-,N/A,,Clear,0,2013-02-05 23:55:00
5:15 PM,30.4,18.1,60,29.99,10.0,Calm,Calm,-,N/A,,Clear,0,2013-02-06 00:15:00
5:35 PM,29.3,18.9,65,29.99,10.0,Calm,Calm,-,N/A,,Clear,0,2013-02-06 00:35:00
5:55 PM,28.8,18.5,66,29.98,10.0,ESE,5.8,-,N/A,,Clear,120,2013-02-06 00:55:00
6:15 PM,27.1,17.1,66,29.98,10.0,Calm,Calm,-,N/A,,Clear,0,2013-02-06 01:15:00
6:35 PM,27.7,18.1,67,29.98,10.0,Calm,Calm,-,N/A,,Clear,0,2013-02-06 01:35:00
6:55 PM,27.5,18.5,69,29.98,10.0,Calm,Calm,-,N/A,,Clear,0,2013-02-06 01:55:00
7:15 PM,26.8,17.8,69,29.98,10.0,Calm,Calm,-,N/A,,Mostly Cloudy,0,2013-02-06 02:15:00
7:35 PM,25.2,17.1,71,29.98,10.0,Calm,Calm,-,N/A,,Overcast,0,2013-02-06 02:35:00
7:55 PM,25.3,16.7,70,29.97,10.0,Calm,Calm,-,N/A,,Scattered Clouds,0,2013-02-06 02:55:00
8:15 PM,25.3,17.6,72,29.97,10.0,Calm,Calm,-,N/A,,Clear,0,2013-02-06 03:15:00
8:35 PM,25.3,18.0,74,29.96,10.0,Calm,Calm,-,N/A,,Mostly Cloudy,0,2013-02-06 03:35:00
8:55 PM,24.6,17.1,73,29.97,10.0,Calm,Calm,-,N/A,,Overcast,0,2013-02-06 03:55:00
9:15 PM,23.9,17.6,77,29.97,10.0,Calm,Calm,-,N/A,,Overcast,0,2013-02-06 04:15:00
9:35 PM,25.0,17.6,74,29.97,10.0,Calm,Calm,-,N/A,,Overcast,0,2013-02-06 04:35:00
9:55 PM,24.8,17.6,74,29.97,10.0,Calm,Calm,-,N/A,,Overcast,0,2013-02-06 04:55:00
10:15 PM,22.3,15.8,76,29.99,10.0,Calm,Calm,-,N/A,,Overcast,0,2013-02-06 05:15:00
10:35 PM,23.9,18.1,79,29.98,10.0,SSE,3.5,-,N/A,,Overcast,160,2013-02-06 05:35:00
10:55 PM,24.8,18.5,77,29.97,10.0,NE,3.5,-,N/A,,Mostly Cloudy,50,2013-02-06 05:55:00
11:15 PM,23.7,18.1,79,29.97,10.0,Calm,Calm,-,N/A,,Overcast,0,2013-02-06 06:15:00
11:35 PM,25.7,19.0,76,29.95,10.0,NNW,8.1,-,N/A,,Overcast,330,2013-02-06 06:35:00
11:55 PM,23.2,17.1,77,29.97,10.0,South,3.5,-,N/A,,Overcast,190,2013-02-06 06:55:00